sensor_id;sensor_type;location;lat;lon;timestamp;P1;durP1;ratioP1;P2;durP2;ratioP2
64467;SDS011;50853;46.836;16.820;2024-03-08T00:02:06;11.73;;;7.78;;
64467;SDS011;50853;46.836;16.820;2024-03-08T00:04:32;11.80;;;7.80;;
64467;SDS011;50853;46.836;16.820;2024-03-08T00:06:58;11.23;;;7.28;;
64467;SDS011;50853;46.836;16.820;2024-03-08T00:09:23;11.20;;;7.72;;
64467;SDS011;50853;46.836;16.820;2024-03-08T00:11:49;12.15;;;8.55;;
64467;SDS011;50853;46.836;16.820;2024-03-08T00:14:17;10.70;;;7.80;;
64467;SDS011;50853;46.836;16.820;2024-03-08T00:16:43;12.63;;;8.20;;
64467;SDS011;50853;46.836;16.820;2024-03-08T00:19:09;10.10;;;7.20;;
64467;SDS011;50853;46.836;16.820;2024-03-08T00:21:35;12.18;;;8.50;;
64467;SDS011;50853;46.836;16.820;2024-03-08T00:24:01;11.43;;;8.25;;
64467;SDS011;50853;46.836;16.820;2024-03-08T00:26:27;12.32;;;7.90;;
64467;SDS011;50853;46.836;16.820;2024-03-08T00:28:55;12.63;;;8.45;;
64467;SDS011;50853;46.836;16.820;2024-03-08T00:31:21;11.50;;;8.05;;
64467;SDS011;50853;46.836;16.820;2024-03-08T00:33:47;11.13;;;8.02;;
64467;SDS011;50853;46.836;16.820;2024-03-08T00:36:13;12.32;;;8.27;;
64467;SDS011;50853;46.836;16.820;2024-03-08T00:38:39;11.02;;;7.93;;
64467;SDS011;50853;46.836;16.820;2024-03-08T00:41:04;13.07;;;8.75;;
64467;SDS011;50853;46.836;16.820;2024-03-08T00:43:30;11.95;;;8.30;;
64467;SDS011;50853;46.836;16.820;2024-03-08T00:45:56;10.98;;;7.75;;
64467;SDS011;50853;46.836;16.820;2024-03-08T00:48:23;12.30;;;8.68;;
64467;SDS011;50853;46.836;16.820;2024-03-08T00:50:49;11.77;;;8.35;;
64467;SDS011;50853;46.836;16.820;2024-03-08T00:53:15;13.45;;;8.45;;
64467;SDS011;50853;46.836;16.820;2024-03-08T00:55:41;11.88;;;8.73;;
64467;SDS011;50853;46.836;16.820;2024-03-08T00:58:07;11.43;;;8.10;;
64467;SDS011;50853;46.836;16.820;2024-03-08T01:00:34;12.45;;;8.40;;
64467;SDS011;50853;46.836;16.820;2024-03-08T01:03:00;11.52;;;8.00;;
64467;SDS011;50853;46.836;16.820;2024-03-08T01:05:26;12.20;;;8.73;;
64467;SDS011;50853;46.836;16.820;2024-03-08T01:07:52;10.73;;;7.90;;
64467;SDS011;50853;46.836;16.820;2024-03-08T01:10:17;12.45;;;8.45;;
64467;SDS011;50853;46.836;16.820;2024-03-08T01:12:43;12.32;;;8.27;;
64467;SDS011;50853;46.836;16.820;2024-03-08T01:15:10;11.88;;;8.10;;
64467;SDS011;50853;46.836;16.820;2024-03-08T01:17:36;15.43;;;9.07;;
64467;SDS011;50853;46.836;16.820;2024-03-08T01:20:03;13.82;;;8.90;;
64467;SDS011;50853;46.836;16.820;2024-03-08T01:24:56;11.98;;;8.35;;
64467;SDS011;50853;46.836;16.820;2024-03-08T01:27:22;12.90;;;8.05;;
64467;SDS011;50853;46.836;16.820;2024-03-08T01:29:50;11.77;;;8.02;;
64467;SDS011;50853;46.836;16.820;2024-03-08T01:32:16;13.05;;;8.85;;
64467;SDS011;50853;46.836;16.820;2024-03-08T01:34:42;11.45;;;8.25;;
64467;SDS011;50853;46.836;16.820;2024-03-08T01:37:10;11.57;;;8.20;;
64467;SDS011;50853;46.836;16.820;2024-03-08T01:39:36;14.18;;;8.65;;
64467;SDS011;50853;46.836;16.820;2024-03-08T01:42:01;13.93;;;9.07;;
64467;SDS011;50853;46.836;16.820;2024-03-08T01:44:27;11.60;;;8.40;;
64467;SDS011;50853;46.836;16.820;2024-03-08T01:46:53;14.10;;;8.98;;
64467;SDS011;50853;46.836;16.820;2024-03-08T01:49:20;12.35;;;8.68;;
64467;SDS011;50853;46.836;16.820;2024-03-08T01:51:48;13.00;;;8.63;;
64467;SDS011;50853;46.836;16.820;2024-03-08T01:54:15;13.40;;;8.88;;
64467;SDS011;50853;46.836;16.820;2024-03-08T01:56:45;11.00;;;8.10;;
64467;SDS011;50853;46.836;16.820;2024-03-08T01:59:11;12.15;;;8.65;;
64467;SDS011;50853;46.836;16.820;2024-03-08T02:01:39;12.70;;;8.55;;
64467;SDS011;50853;46.836;16.820;2024-03-08T02:04:06;13.93;;;8.93;;
64467;SDS011;50853;46.836;16.820;2024-03-08T02:06:32;12.00;;;8.43;;
64467;SDS011;50853;46.836;16.820;2024-03-08T02:08:58;13.18;;;8.60;;
64467;SDS011;50853;46.836;16.820;2024-03-08T02:11:24;11.65;;;8.20;;
64467;SDS011;50853;46.836;16.820;2024-03-08T02:13:50;12.02;;;8.52;;
64467;SDS011;50853;46.836;16.820;2024-03-08T02:16:22;12.13;;;8.50;;
64467;SDS011;50853;46.836;16.820;2024-03-08T02:18:48;12.60;;;8.82;;
64467;SDS011;50853;46.836;16.820;2024-03-08T02:21:14;15.27;;;9.52;;
64467;SDS011;50853;46.836;16.820;2024-03-08T02:23:43;12.98;;;9.57;;
64467;SDS011;50853;46.836;16.820;2024-03-08T02:26:09;13.70;;;8.63;;
64467;SDS011;50853;46.836;16.820;2024-03-08T02:28:35;13.55;;;9.52;;
64467;SDS011;50853;46.836;16.820;2024-03-08T02:31:01;13.35;;;8.80;;
64467;SDS011;50853;46.836;16.820;2024-03-08T02:33:27;13.23;;;8.95;;
64467;SDS011;50853;46.836;16.820;2024-03-08T02:35:54;12.20;;;8.50;;
64467;SDS011;50853;46.836;16.820;2024-03-08T02:38:21;12.45;;;8.68;;
64467;SDS011;50853;46.836;16.820;2024-03-08T02:40:50;13.68;;;8.63;;
64467;SDS011;50853;46.836;16.820;2024-03-08T02:43:17;12.38;;;8.85;;
64467;SDS011;50853;46.836;16.820;2024-03-08T02:48:11;13.68;;;8.82;;
64467;SDS011;50853;46.836;16.820;2024-03-08T02:50:38;14.90;;;9.10;;
64467;SDS011;50853;46.836;16.820;2024-03-08T02:53:10;15.30;;;9.23;;
64467;SDS011;50853;46.836;16.820;2024-03-08T02:55:40;12.75;;;9.40;;
64467;SDS011;50853;46.836;16.820;2024-03-08T02:58:07;13.80;;;8.68;;
64467;SDS011;50853;46.836;16.820;2024-03-08T03:00:37;14.65;;;9.38;;
64467;SDS011;50853;46.836;16.820;2024-03-08T03:03:07;13.07;;;9.18;;
64467;SDS011;50853;46.836;16.820;2024-03-08T03:05:33;14.27;;;10.03;;
64467;SDS011;50853;46.836;16.820;2024-03-08T03:07:59;14.55;;;9.88;;
64467;SDS011;50853;46.836;16.820;2024-03-08T03:10:25;15.90;;;9.30;;
64467;SDS011;50853;46.836;16.820;2024-03-08T03:12:51;13.38;;;9.30;;
64467;SDS011;50853;46.836;16.820;2024-03-08T03:15:17;13.27;;;9.02;;
64467;SDS011;50853;46.836;16.820;2024-03-08T03:17:47;13.77;;;9.17;;
64467;SDS011;50853;46.836;16.820;2024-03-08T03:20:14;12.07;;;9.60;;
64467;SDS011;50853;46.836;16.820;2024-03-08T03:22:47;15.20;;;10.10;;
64467;SDS011;50853;46.836;16.820;2024-03-08T03:25:17;11.70;;;8.50;;
64467;SDS011;50853;46.836;16.820;2024-03-08T03:27:51;13.75;;;9.93;;
64467;SDS011;50853;46.836;16.820;2024-03-08T03:32:49;14.55;;;9.88;;
64467;SDS011;50853;46.836;16.820;2024-03-08T03:35:16;14.77;;;9.73;;
64467;SDS011;50853;46.836;16.820;2024-03-08T03:37:43;14.27;;;9.02;;
64467;SDS011;50853;46.836;16.820;2024-03-08T03:40:16;13.60;;;9.50;;
64467;SDS011;50853;46.836;16.820;2024-03-08T03:42:45;14.63;;;9.75;;
64467;SDS011;50853;46.836;16.820;2024-03-08T03:45:11;16.98;;;10.10;;
64467;SDS011;50853;46.836;16.820;2024-03-08T03:47:39;13.68;;;9.30;;
64467;SDS011;50853;46.836;16.820;2024-03-08T03:50:08;14.50;;;9.60;;
64467;SDS011;50853;46.836;16.820;2024-03-08T03:52:35;11.98;;;8.77;;
64467;SDS011;50853;46.836;16.820;2024-03-08T03:55:00;13.18;;;9.65;;
64467;SDS011;50853;46.836;16.820;2024-03-08T03:57:26;13.40;;;9.43;;
64467;SDS011;50853;46.836;16.820;2024-03-08T03:59:52;14.85;;;10.05;;
64467;SDS011;50853;46.836;16.820;2024-03-08T04:02:18;15.10;;;9.80;;
64467;SDS011;50853;46.836;16.820;2024-03-08T04:04:46;14.75;;;10.65;;
64467;SDS011;50853;46.836;16.820;2024-03-08T04:07:12;13.60;;;9.85;;
64467;SDS011;50853;46.836;16.820;2024-03-08T04:09:38;13.82;;;9.82;;
64467;SDS011;50853;46.836;16.820;2024-03-08T04:12:04;15.10;;;9.98;;
64467;SDS011;50853;46.836;16.820;2024-03-08T04:14:30;17.20;;;10.95;;
64467;SDS011;50853;46.836;16.820;2024-03-08T04:16:56;15.20;;;9.88;;
64467;SDS011;50853;46.836;16.820;2024-03-08T04:19:22;16.55;;;10.85;;
64467;SDS011;50853;46.836;16.820;2024-03-08T04:21:49;16.92;;;10.88;;
64467;SDS011;50853;46.836;16.820;2024-03-08T04:24:15;17.58;;;11.02;;
64467;SDS011;50853;46.836;16.820;2024-03-08T04:29:08;16.95;;;11.23;;
64467;SDS011;50853;46.836;16.820;2024-03-08T04:31:34;17.30;;;12.00;;
64467;SDS011;50853;46.836;16.820;2024-03-08T04:34:00;16.75;;;11.07;;
64467;SDS011;50853;46.836;16.820;2024-03-08T04:36:26;17.05;;;11.63;;
64467;SDS011;50853;46.836;16.820;2024-03-08T04:38:52;17.95;;;11.27;;
64467;SDS011;50853;46.836;16.820;2024-03-08T04:41:17;15.40;;;11.45;;
64467;SDS011;50853;46.836;16.820;2024-03-08T04:43:43;17.90;;;12.00;;
64467;SDS011;50853;46.836;16.820;2024-03-08T04:46:09;17.95;;;12.07;;
64467;SDS011;50853;46.836;16.820;2024-03-08T04:48:35;17.40;;;10.57;;
64467;SDS011;50853;46.836;16.820;2024-03-08T04:51:02;14.93;;;10.63;;
64467;SDS011;50853;46.836;16.820;2024-03-08T04:53:29;18.23;;;10.85;;
64467;SDS011;50853;46.836;16.820;2024-03-08T04:55:57;17.15;;;11.88;;
64467;SDS011;50853;46.836;16.820;2024-03-08T04:58:23;15.50;;;10.93;;
64467;SDS011;50853;46.836;16.820;2024-03-08T05:00:49;16.17;;;11.18;;
64467;SDS011;50853;46.836;16.820;2024-03-08T05:03:15;15.95;;;10.73;;
64467;SDS011;50853;46.836;16.820;2024-03-08T05:05:41;15.18;;;10.70;;
64467;SDS011;50853;46.836;16.820;2024-03-08T05:08:07;15.18;;;9.98;;
64467;SDS011;50853;46.836;16.820;2024-03-08T05:10:33;16.30;;;10.40;;
64467;SDS011;50853;46.836;16.820;2024-03-08T05:12:59;16.00;;;10.90;;
64467;SDS011;50853;46.836;16.820;2024-03-08T05:15:25;15.85;;;10.80;;
64467;SDS011;50853;46.836;16.820;2024-03-08T05:17:51;17.08;;;11.52;;
64467;SDS011;50853;46.836;16.820;2024-03-08T05:20:16;15.48;;;11.20;;
64467;SDS011;50853;46.836;16.820;2024-03-08T05:22:44;16.38;;;11.20;;
64467;SDS011;50853;46.836;16.820;2024-03-08T05:25:10;18.38;;;10.95;;
64467;SDS011;50853;46.836;16.820;2024-03-08T05:27:37;17.55;;;11.48;;
64467;SDS011;50853;46.836;16.820;2024-03-08T05:30:03;17.75;;;10.93;;
64467;SDS011;50853;46.836;16.820;2024-03-08T05:32:29;14.23;;;10.27;;
64467;SDS011;50853;46.836;16.820;2024-03-08T05:34:55;17.70;;;11.60;;
64467;SDS011;50853;46.836;16.820;2024-03-08T05:37:21;17.95;;;11.63;;
64467;SDS011;50853;46.836;16.820;2024-03-08T05:39:47;15.63;;;10.85;;
64467;SDS011;50853;46.836;16.820;2024-03-08T05:42:13;15.88;;;10.85;;
64467;SDS011;50853;46.836;16.820;2024-03-08T05:44:39;15.40;;;10.52;;
64467;SDS011;50853;46.836;16.820;2024-03-08T05:47:05;14.70;;;10.13;;
64467;SDS011;50853;46.836;16.820;2024-03-08T05:49:32;16.75;;;10.88;;
64467;SDS011;50853;46.836;16.820;2024-03-08T05:51:59;16.98;;;11.27;;
64467;SDS011;50853;46.836;16.820;2024-03-08T05:54:25;15.73;;;11.10;;
64467;SDS011;50853;46.836;16.820;2024-03-08T05:56:52;15.65;;;10.68;;
64467;SDS011;50853;46.836;16.820;2024-03-08T05:59:19;17.55;;;10.93;;
64467;SDS011;50853;46.836;16.820;2024-03-08T06:01:45;18.25;;;11.15;;
64467;SDS011;50853;46.836;16.820;2024-03-08T06:04:12;16.90;;;11.68;;
64467;SDS011;50853;46.836;16.820;2024-03-08T06:06:39;16.20;;;10.77;;
64467;SDS011;50853;46.836;16.820;2024-03-08T06:09:05;16.55;;;11.38;;
64467;SDS011;50853;46.836;16.820;2024-03-08T06:11:36;16.98;;;11.15;;
64467;SDS011;50853;46.836;16.820;2024-03-08T06:14:03;15.63;;;11.07;;
64467;SDS011;50853;46.836;16.820;2024-03-08T06:16:29;18.40;;;11.02;;
64467;SDS011;50853;46.836;16.820;2024-03-08T06:18:57;17.80;;;11.50;;
64467;SDS011;50853;46.836;16.820;2024-03-08T06:21:23;17.45;;;11.25;;
64467;SDS011;50853;46.836;16.820;2024-03-08T06:23:52;14.93;;;10.70;;
64467;SDS011;50853;46.836;16.820;2024-03-08T06:26:22;17.85;;;11.43;;
64467;SDS011;50853;46.836;16.820;2024-03-08T06:28:54;18.30;;;12.00;;
64467;SDS011;50853;46.836;16.820;2024-03-08T06:31:20;17.95;;;11.88;;
64467;SDS011;50853;46.836;16.820;2024-03-08T06:33:46;17.83;;;11.02;;
64467;SDS011;50853;46.836;16.820;2024-03-08T06:36:15;15.27;;;10.80;;
64467;SDS011;50853;46.836;16.820;2024-03-08T06:38:44;19.27;;;12.10;;
64467;SDS011;50853;46.836;16.820;2024-03-08T06:41:11;17.80;;;12.20;;
64467;SDS011;50853;46.836;16.820;2024-03-08T06:43:44;17.08;;;11.95;;
64467;SDS011;50853;46.836;16.820;2024-03-08T06:46:10;17.05;;;11.60;;
64467;SDS011;50853;46.836;16.820;2024-03-08T06:48:39;18.38;;;11.90;;
64467;SDS011;50853;46.836;16.820;2024-03-08T06:51:05;15.52;;;10.65;;
64467;SDS011;50853;46.836;16.820;2024-03-08T06:53:31;15.35;;;11.43;;
64467;SDS011;50853;46.836;16.820;2024-03-08T06:55:57;16.17;;;10.93;;
64467;SDS011;50853;46.836;16.820;2024-03-08T06:58:24;15.40;;;11.63;;
64467;SDS011;50853;46.836;16.820;2024-03-08T07:00:50;17.02;;;11.65;;
64467;SDS011;50853;46.836;16.820;2024-03-08T07:03:18;16.08;;;10.90;;
64467;SDS011;50853;46.836;16.820;2024-03-08T07:05:45;18.45;;;11.80;;
64467;SDS011;50853;46.836;16.820;2024-03-08T07:08:11;16.45;;;11.30;;
64467;SDS011;50853;46.836;16.820;2024-03-08T07:10:40;18.70;;;11.60;;
64467;SDS011;50853;46.836;16.820;2024-03-08T07:13:07;18.10;;;12.13;;
64467;SDS011;50853;46.836;16.820;2024-03-08T07:15:33;17.00;;;11.48;;
64467;SDS011;50853;46.836;16.820;2024-03-08T07:18:00;17.13;;;11.90;;
64467;SDS011;50853;46.836;16.820;2024-03-08T07:20:26;18.40;;;12.70;;
64467;SDS011;50853;46.836;16.820;2024-03-08T07:22:53;16.52;;;11.52;;
64467;SDS011;50853;46.836;16.820;2024-03-08T07:25:19;17.58;;;11.77;;
64467;SDS011;50853;46.836;16.820;2024-03-08T07:27:50;18.48;;;11.98;;
64467;SDS011;50853;46.836;16.820;2024-03-08T07:30:24;17.65;;;12.90;;
64467;SDS011;50853;46.836;16.820;2024-03-08T07:33:09;18.05;;;11.88;;
64467;SDS011;50853;46.836;16.820;2024-03-08T07:35:39;19.35;;;12.50;;
64467;SDS011;50853;46.836;16.820;2024-03-08T07:38:06;18.45;;;12.25;;
64467;SDS011;50853;46.836;16.820;2024-03-08T07:40:36;14.63;;;10.73;;
64467;SDS011;50853;46.836;16.820;2024-03-08T07:43:09;18.45;;;12.13;;
64467;SDS011;50853;46.836;16.820;2024-03-08T07:45:39;15.98;;;11.45;;
64467;SDS011;50853;46.836;16.820;2024-03-08T07:48:05;16.88;;;11.13;;
64467;SDS011;50853;46.836;16.820;2024-03-08T07:50:38;22.48;;;12.20;;
64467;SDS011;50853;46.836;16.820;2024-03-08T07:53:05;20.98;;;12.30;;
64467;SDS011;50853;46.836;16.820;2024-03-08T07:55:35;17.88;;;12.27;;
64467;SDS011;50853;46.836;16.820;2024-03-08T07:58:01;18.13;;;12.20;;
64467;SDS011;50853;46.836;16.820;2024-03-08T08:00:28;19.30;;;11.80;;
64467;SDS011;50853;46.836;16.820;2024-03-08T08:02:56;16.00;;;11.38;;
64467;SDS011;50853;46.836;16.820;2024-03-08T08:05:22;15.80;;;11.32;;
64467;SDS011;50853;46.836;16.820;2024-03-08T08:07:48;17.73;;;11.02;;
64467;SDS011;50853;46.836;16.820;2024-03-08T08:10:15;18.33;;;12.10;;
64467;SDS011;50853;46.836;16.820;2024-03-08T08:12:49;16.15;;;11.48;;
64467;SDS011;50853;46.836;16.820;2024-03-08T08:15:16;20.83;;;12.55;;
64467;SDS011;50853;46.836;16.820;2024-03-08T08:17:43;20.00;;;11.75;;
64467;SDS011;50853;46.836;16.820;2024-03-08T08:20:10;17.02;;;12.07;;
64467;SDS011;50853;46.836;16.820;2024-03-08T08:22:39;15.80;;;11.60;;
64467;SDS011;50853;46.836;16.820;2024-03-08T08:25:06;16.60;;;11.10;;
64467;SDS011;50853;46.836;16.820;2024-03-08T08:27:32;17.73;;;11.73;;
64467;SDS011;50853;46.836;16.820;2024-03-08T08:29:58;17.60;;;11.75;;
64467;SDS011;50853;46.836;16.820;2024-03-08T08:32:24;19.45;;;13.43;;
64467;SDS011;50853;46.836;16.820;2024-03-08T08:34:50;22.60;;;12.15;;
64467;SDS011;50853;46.836;16.820;2024-03-08T08:37:16;18.90;;;12.05;;
64467;SDS011;50853;46.836;16.820;2024-03-08T08:39:42;20.10;;;13.00;;
64467;SDS011;50853;46.836;16.820;2024-03-08T08:42:08;17.38;;;11.63;;
64467;SDS011;50853;46.836;16.820;2024-03-08T08:44:34;16.42;;;11.60;;
64467;SDS011;50853;46.836;16.820;2024-03-08T08:47:01;19.40;;;12.40;;
64467;SDS011;50853;46.836;16.820;2024-03-08T08:49:29;17.73;;;12.05;;
64467;SDS011;50853;46.836;16.820;2024-03-08T08:51:55;17.45;;;12.90;;
64467;SDS011;50853;46.836;16.820;2024-03-08T08:54:23;19.00;;;12.82;;
64467;SDS011;50853;46.836;16.820;2024-03-08T08:56:50;19.85;;;12.40;;
64467;SDS011;50853;46.836;16.820;2024-03-08T08:59:16;19.17;;;12.35;;
64467;SDS011;50853;46.836;16.820;2024-03-08T09:01:45;20.83;;;12.45;;
64467;SDS011;50853;46.836;16.820;2024-03-08T09:04:15;18.23;;;12.43;;
64467;SDS011;50853;46.836;16.820;2024-03-08T09:06:41;16.73;;;11.38;;
64467;SDS011;50853;46.836;16.820;2024-03-08T09:09:07;18.50;;;12.30;;
64467;SDS011;50853;46.836;16.820;2024-03-08T09:11:38;17.05;;;12.30;;
64467;SDS011;50853;46.836;16.820;2024-03-08T09:14:07;19.17;;;13.25;;
64467;SDS011;50853;46.836;16.820;2024-03-08T09:16:34;19.08;;;12.10;;
64467;SDS011;50853;46.836;16.820;2024-03-08T09:18:59;16.42;;;10.75;;
64467;SDS011;50853;46.836;16.820;2024-03-08T09:21:25;17.98;;;12.10;;
64467;SDS011;50853;46.836;16.820;2024-03-08T09:23:52;16.20;;;11.50;;
64467;SDS011;50853;46.836;16.820;2024-03-08T09:26:18;17.45;;;11.80;;
64467;SDS011;50853;46.836;16.820;2024-03-08T09:28:44;17.88;;;11.88;;
64467;SDS011;50853;46.836;16.820;2024-03-08T09:31:11;16.35;;;10.85;;
64467;SDS011;50853;46.836;16.820;2024-03-08T09:33:37;17.15;;;11.40;;
64467;SDS011;50853;46.836;16.820;2024-03-08T09:36:04;16.23;;;10.48;;
64467;SDS011;50853;46.836;16.820;2024-03-08T09:38:34;18.27;;;12.27;;
64467;SDS011;50853;46.836;16.820;2024-03-08T09:41:00;19.15;;;11.43;;
64467;SDS011;50853;46.836;16.820;2024-03-08T09:43:29;18.20;;;11.60;;
64467;SDS011;50853;46.836;16.820;2024-03-08T09:45:58;16.20;;;11.52;;
64467;SDS011;50853;46.836;16.820;2024-03-08T09:48:25;17.58;;;12.23;;
64467;SDS011;50853;46.836;16.820;2024-03-08T09:50:51;19.00;;;12.50;;
64467;SDS011;50853;46.836;16.820;2024-03-08T09:53:17;15.95;;;11.35;;
64467;SDS011;50853;46.836;16.820;2024-03-08T09:55:43;18.27;;;12.50;;
64467;SDS011;50853;46.836;16.820;2024-03-08T09:58:14;18.35;;;13.02;;
64467;SDS011;50853;46.836;16.820;2024-03-08T10:00:43;19.10;;;12.40;;
64467;SDS011;50853;46.836;16.820;2024-03-08T10:03:09;15.75;;;11.35;;
64467;SDS011;50853;46.836;16.820;2024-03-08T10:05:36;17.83;;;11.07;;
64467;SDS011;50853;46.836;16.820;2024-03-08T10:08:02;17.80;;;11.27;;
64467;SDS011;50853;46.836;16.820;2024-03-08T10:10:28;18.02;;;12.15;;
64467;SDS011;50853;46.836;16.820;2024-03-08T10:12:55;18.90;;;12.75;;
64467;SDS011;50853;46.836;16.820;2024-03-08T10:15:21;17.35;;;11.60;;
64467;SDS011;50853;46.836;16.820;2024-03-08T10:29:54;15.90;;;11.63;;
64467;SDS011;50853;46.836;16.820;2024-03-08T10:32:20;17.50;;;11.73;;
64467;SDS011;50853;46.836;16.820;2024-03-08T10:34:46;17.83;;;11.82;;
64467;SDS011;50853;46.836;16.820;2024-03-08T10:37:15;18.60;;;12.40;;
64467;SDS011;50853;46.836;16.820;2024-03-08T10:39:49;17.80;;;12.18;;
64467;SDS011;50853;46.836;16.820;2024-03-08T10:42:41;16.92;;;11.57;;
64467;SDS011;50853;46.836;16.820;2024-03-08T10:45:35;18.42;;;12.10;;
64467;SDS011;50853;46.836;16.820;2024-03-08T10:48:04;17.63;;;11.35;;
64467;SDS011;50853;46.836;16.820;2024-03-08T10:50:53;17.35;;;11.40;;
64467;SDS011;50853;46.836;16.820;2024-03-08T10:53:19;16.60;;;11.73;;
64467;SDS011;50853;46.836;16.820;2024-03-08T10:55:49;15.60;;;10.77;;
64467;SDS011;50853;46.836;16.820;2024-03-08T10:58:18;17.33;;;11.50;;
64467;SDS011;50853;46.836;16.820;2024-03-08T11:00:47;17.13;;;11.20;;
64467;SDS011;50853;46.836;16.820;2024-03-08T11:06:06;15.45;;;10.40;;
64467;SDS011;50853;46.836;16.820;2024-03-08T11:08:37;17.30;;;10.70;;
64467;SDS011;50853;46.836;16.820;2024-03-08T11:11:04;14.02;;;10.05;;
64467;SDS011;50853;46.836;16.820;2024-03-08T11:13:37;15.98;;;10.80;;
64467;SDS011;50853;46.836;16.820;2024-03-08T11:18:36;16.50;;;11.68;;
64467;SDS011;50853;46.836;16.820;2024-03-08T11:21:08;15.18;;;10.40;;
64467;SDS011;50853;46.836;16.820;2024-03-08T11:23:37;15.35;;;10.10;;
64467;SDS011;50853;46.836;16.820;2024-03-08T11:26:19;14.23;;;10.07;;
64467;SDS011;50853;46.836;16.820;2024-03-08T11:28:48;16.85;;;11.18;;
64467;SDS011;50853;46.836;16.820;2024-03-08T11:33:47;15.27;;;10.13;;
64467;SDS011;50853;46.836;16.820;2024-03-08T11:36:21;18.15;;;11.60;;
64467;SDS011;50853;46.836;16.820;2024-03-08T11:38:48;16.88;;;11.32;;
64467;SDS011;50853;46.836;16.820;2024-03-08T11:41:17;16.48;;;10.48;;
64467;SDS011;50853;46.836;16.820;2024-03-08T11:44:04;13.95;;;9.95;;
64467;SDS011;50853;46.836;16.820;2024-03-08T11:46:31;13.93;;;10.07;;
64467;SDS011;50853;46.836;16.820;2024-03-08T11:48:57;16.85;;;10.63;;
64467;SDS011;50853;46.836;16.820;2024-03-08T11:51:22;13.60;;;10.20;;
64467;SDS011;50853;46.836;16.820;2024-03-08T11:53:51;15.00;;;11.45;;
64467;SDS011;50853;46.836;16.820;2024-03-08T11:56:18;15.60;;;10.60;;
64467;SDS011;50853;46.836;16.820;2024-03-08T11:58:54;17.10;;;11.20;;
64467;SDS011;50853;46.836;16.820;2024-03-08T12:01:22;16.67;;;11.07;;
64467;SDS011;50853;46.836;16.820;2024-03-08T12:04:01;14.77;;;9.60;;
64467;SDS011;50853;46.836;16.820;2024-03-08T12:06:27;15.20;;;10.05;;
64467;SDS011;50853;46.836;16.820;2024-03-08T12:09:08;14.68;;;10.77;;
64467;SDS011;50853;46.836;16.820;2024-03-08T12:11:35;15.25;;;10.48;;
64467;SDS011;50853;46.836;16.820;2024-03-08T12:14:02;15.80;;;10.50;;
64467;SDS011;50853;46.836;16.820;2024-03-08T12:16:29;15.52;;;10.55;;
64467;SDS011;50853;46.836;16.820;2024-03-08T12:18:54;19.15;;;10.35;;
64467;SDS011;50853;46.836;16.820;2024-03-08T12:21:20;15.10;;;10.48;;
64467;SDS011;50853;46.836;16.820;2024-03-08T12:24:10;14.70;;;10.82;;
64467;SDS011;50853;46.836;16.820;2024-03-08T12:26:36;14.90;;;10.15;;
64467;SDS011;50853;46.836;16.820;2024-03-08T12:31:56;14.45;;;9.30;;
64467;SDS011;50853;46.836;16.820;2024-03-08T12:34:26;16.17;;;10.73;;
64467;SDS011;50853;46.836;16.820;2024-03-08T12:36:53;13.98;;;9.52;;
64467;SDS011;50853;46.836;16.820;2024-03-08T12:39:20;14.23;;;9.88;;
64467;SDS011;50853;46.836;16.820;2024-03-08T12:41:48;15.40;;;10.73;;
64467;SDS011;50853;46.836;16.820;2024-03-08T12:44:16;16.25;;;10.43;;
64467;SDS011;50853;46.836;16.820;2024-03-08T12:46:44;15.90;;;10.53;;
64467;SDS011;50853;46.836;16.820;2024-03-08T12:49:10;14.30;;;10.07;;
64467;SDS011;50853;46.836;16.820;2024-03-08T12:51:37;17.17;;;11.30;;
64467;SDS011;50853;46.836;16.820;2024-03-08T12:54:04;17.02;;;10.43;;
64467;SDS011;50853;46.836;16.820;2024-03-08T12:56:33;16.45;;;10.85;;
64467;SDS011;50853;46.836;16.820;2024-03-08T12:58:59;15.85;;;9.77;;
64467;SDS011;50853;46.836;16.820;2024-03-08T13:01:26;14.52;;;9.73;;
64467;SDS011;50853;46.836;16.820;2024-03-08T13:03:53;16.52;;;10.60;;
64467;SDS011;50853;46.836;16.820;2024-03-08T13:06:20;18.05;;;11.13;;
64467;SDS011;50853;46.836;16.820;2024-03-08T13:08:52;16.02;;;10.02;;
64467;SDS011;50853;46.836;16.820;2024-03-08T13:11:19;15.95;;;10.95;;
64467;SDS011;50853;46.836;16.820;2024-03-08T13:13:45;15.05;;;10.07;;
64467;SDS011;50853;46.836;16.820;2024-03-08T13:16:11;15.05;;;10.60;;
64467;SDS011;50853;46.836;16.820;2024-03-08T13:18:40;15.07;;;9.98;;
64467;SDS011;50853;46.836;16.820;2024-03-08T13:21:09;16.33;;;10.40;;
64467;SDS011;50853;46.836;16.820;2024-03-08T13:23:36;15.95;;;10.90;;
64467;SDS011;50853;46.836;16.820;2024-03-08T13:26:09;14.75;;;10.52;;
64467;SDS011;50853;46.836;16.820;2024-03-08T13:28:41;16.55;;;10.50;;
64467;SDS011;50853;46.836;16.820;2024-03-08T13:31:10;15.40;;;10.90;;
64467;SDS011;50853;46.836;16.820;2024-03-08T13:33:39;13.27;;;9.65;;
64467;SDS011;50853;46.836;16.820;2024-03-08T13:36:06;12.90;;;9.73;;
64467;SDS011;50853;46.836;16.820;2024-03-08T13:38:40;15.38;;;10.82;;
64467;SDS011;50853;46.836;16.820;2024-03-08T13:41:12;14.85;;;10.02;;
64467;SDS011;50853;46.836;16.820;2024-03-08T13:43:46;13.20;;;9.98;;
64467;SDS011;50853;46.836;16.820;2024-03-08T13:46:15;15.25;;;10.65;;
64467;SDS011;50853;46.836;16.820;2024-03-08T13:48:41;15.90;;;11.03;;
64467;SDS011;50853;46.836;16.820;2024-03-08T13:51:08;14.45;;;10.45;;
64467;SDS011;50853;46.836;16.820;2024-03-08T13:53:40;17.83;;;10.60;;
64467;SDS011;50853;46.836;16.820;2024-03-08T13:56:06;13.90;;;9.55;;
64467;SDS011;50853;46.836;16.820;2024-03-08T13:58:35;11.90;;;8.90;;
64467;SDS011;50853;46.836;16.820;2024-03-08T14:01:01;16.05;;;10.02;;
64467;SDS011;50853;46.836;16.820;2024-03-08T14:03:31;13.68;;;9.80;;
64467;SDS011;50853;46.836;16.820;2024-03-08T14:05:57;14.07;;;9.93;;
64467;SDS011;50853;46.836;16.820;2024-03-08T14:08:24;14.40;;;10.30;;
64467;SDS011;50853;46.836;16.820;2024-03-08T14:10:52;14.02;;;9.40;;
64467;SDS011;50853;46.836;16.820;2024-03-08T14:13:18;13.95;;;9.63;;
64467;SDS011;50853;46.836;16.820;2024-03-08T14:15:44;14.35;;;9.85;;
64467;SDS011;50853;46.836;16.820;2024-03-08T14:18:11;14.13;;;9.53;;
64467;SDS011;50853;46.836;16.820;2024-03-08T14:20:38;15.50;;;9.45;;
64467;SDS011;50853;46.836;16.820;2024-03-08T14:23:04;15.52;;;9.40;;
64467;SDS011;50853;46.836;16.820;2024-03-08T14:25:33;13.52;;;9.48;;
64467;SDS011;50853;46.836;16.820;2024-03-08T14:27:59;13.82;;;10.35;;
64467;SDS011;50853;46.836;16.820;2024-03-08T14:30:33;12.18;;;8.85;;
64467;SDS011;50853;46.836;16.820;2024-03-08T14:33:06;14.48;;;10.40;;
64467;SDS011;50853;46.836;16.820;2024-03-08T14:35:34;13.20;;;9.02;;
64467;SDS011;50853;46.836;16.820;2024-03-08T14:38:01;14.82;;;9.45;;
64467;SDS011;50853;46.836;16.820;2024-03-08T14:40:27;12.97;;;9.50;;
64467;SDS011;50853;46.836;16.820;2024-03-08T14:42:55;13.18;;;9.15;;
64467;SDS011;50853;46.836;16.820;2024-03-08T14:45:22;12.70;;;9.10;;
64467;SDS011;50853;46.836;16.820;2024-03-08T14:47:49;12.45;;;9.07;;
64467;SDS011;50853;46.836;16.820;2024-03-08T14:50:19;13.68;;;9.35;;